Time;durP1;ratioP1;P1;durP2;ratioP2;P2;SDS_P1;SDS_P2;PMS_P1;PMS_P2;Temp;Humidity;BMP_temperature;BMP_pressure;BME280_temperature;BME280_humidity;BME280_pressure;Samples;Min_cycle;Max_cycle;Signal;HPM_P1;HPM_P2
2023/04/29 00:01:29;;;;;;;;;2.25;2.25;;;;;;;;5058809;28;9656;-89
2023/04/29 00:03:57;;;;;;;;;4.75;4.75;;;;;;;;5061319;28;9638;-90
2023/04/29 00:06:24;;;;;;;;;5.00;3.75;;;;;;;;5049013;28;9775;-89
2023/04/29 00:08:52;;;;;;;;;2.50;2.50;;;;;;;;5050594;28;9719;-89
2023/04/29 00:11:20;;;;;;;;;3.00;3.00;;;;;;;;5056220;28;9695;-91
2023/04/29 00:13:48;;;;;;;;;1.00;1.00;;;;;;;;5070262;28;9726;-91
2023/04/29 00:16:15;;;;;;;;;3.00;3.00;;;;;;;;5052827;28;9786;-89
2023/04/29 00:18:42;;;;;;;;;3.25;3.00;;;;;;;;5051906;28;9715;-89
2023/04/29 00:21:10;;;;;;;;;3.00;3.00;;;;;;;;5062982;28;9908;-88
2023/04/29 00:23:37;;;;;;;;;4.75;2.75;;;;;;;;5058614;28;9782;-89
2023/04/29 00:26:04;;;;;;;;;4.00;4.00;;;;;;;;5061410;28;9859;-88
2023/04/29 00:28:34;;;;;;;;;3.50;3.50;;;;;;;;5056920;28;9874;-88
2023/04/29 00:31:02;;;;;;;;;3.00;3.00;;;;;;;;5060151;28;9653;-86
2023/04/29 00:33:32;;;;;;;;;2.00;2.00;;;;;;;;5056413;28;9784;-86
2023/04/29 00:36:01;;;;;;;;;2.50;2.25;;;;;;;;5065681;28;9784;-87
2023/04/29 00:38:30;;;;;;;;;2.50;2.50;;;;;;;;5060693;28;9803;-87
2023/04/29 00:40:58;;;;;;;;;3.25;3.25;;;;;;;;5049436;28;9688;-88
2023/04/29 00:43:25;;;;;;;;;2.00;2.00;;;;;;;;5059754;28;9715;-88
2023/04/29 00:45:54;;;;;;;;;3.75;3.75;;;;;;;;5071528;28;9896;-87
2023/04/29 00:48:23;;;;;;;;;4.00;4.00;;;;;;;;5061667;28;9850;-90
2023/04/29 00:50:50;;;;;;;;;3.00;3.00;;;;;;;;5065639;28;10048;-87
2023/04/29 00:53:18;;;;;;;;;2.00;2.00;;;;;;;;5052243;28;9958;-90
2023/04/29 00:55:49;;;;;;;;;2.25;2.25;;;;;;;;5052027;28;9924;-87
2023/04/29 00:58:17;;;;;;;;;3.75;3.00;;;;;;;;5054114;28;10049;-89
2023/04/29 01:00:45;;;;;;;;;3.25;3.25;;;;;;;;5051617;28;9882;-90
2023/04/29 01:03:14;;;;;;;;;2.00;2.00;;;;;;;;5051400;28;9888;-89
2023/04/29 01:05:42;;;;;;;;;3.00;3.00;;;;;;;;5052636;28;9886;-88
2023/04/29 01:08:17;;;;;;;;;4.00;4.00;;;;;;;;5052694;28;9895;-92
2023/04/29 01:10:48;;;;;;;;;2.25;2.00;;;;;;;;5052364;28;9887;-89
2023/04/29 01:13:19;;;;;;;;;4.00;4.00;;;;;;;;5058770;28;10026;-85
2023/04/29 01:15:49;;;;;;;;;5.00;2.75;;;;;;;;5055469;28;9944;-87
2023/04/29 01:18:24;;;;;;;;;3.75;3.75;;;;;;;;5054888;28;10040;-87
2023/04/29 01:20:52;;;;;;;;;3.25;3.25;;;;;;;;5053326;28;10028;-86
2023/04/29 01:23:20;;;;;;;;;4.00;4.00;;;;;;;;5052776;28;9972;-87
2023/04/29 01:25:49;;;;;;;;;3.00;3.00;;;;;;;;5052943;28;10189;-86
2023/04/29 01:28:24;;;;;;;;;2.25;2.25;;;;;;;;5053521;28;9938;-85
2023/04/29 01:31:00;;;;;;;;;4.25;4.25;;;;;;;;5051800;28;9808;-85
2023/04/29 01:33:33;;;;;;;;;4.00;4.00;;;;;;;;5084078;28;9937;-86
2023/04/29 01:36:08;;;;;;;;;4.00;4.00;;;;;;;;5051546;28;9962;-86
2023/04/29 01:38:40;;;;;;;;;3.50;3.50;;;;;;;;5059628;28;10117;-91
2023/04/29 01:41:15;;;;;;;;;4.25;4.25;;;;;;;;5059792;28;10091;-90
2023/04/29 01:43:42;;;;;;;;;4.50;4.50;;;;;;;;5072099;28;9879;-88
2023/04/29 01:46:11;;;;;;;;;4.00;4.00;;;;;;;;5062514;28;10004;-88
2023/04/29 01:48:40;;;;;;;;;4.00;4.00;;;;;;;;5064586;28;9881;-91
2023/04/29 01:51:07;;;;;;;;;5.50;4.75;;;;;;;;5057563;28;9762;-87
2023/04/29 01:53:35;;;;;;;;;5.25;5.25;;;;;;;;5060234;28;9852;-88
2023/04/29 01:56:02;;;;;;;;;6.75;6.00;;;;;;;;5057314;28;9649;-90
2023/04/29 01:58:33;;;;;;;;;4.00;4.00;;;;;;;;5053415;28;9863;-87
2023/04/29 02:01:00;;;;;;;;;7.50;7.50;;;;;;;;5058129;28;9858;-88
2023/04/29 02:03:27;;;;;;;;;14.00;13.00;;;;;;;;5058021;28;9699;-88
2023/04/29 02:05:54;;;;;;;;;13.75;10.00;;;;;;;;5057699;28;9790;-88
2023/04/29 02:08:22;;;;;;;;;13.75;12.25;;;;;;;;5050932;28;9985;-87
2023/04/29 02:10:53;;;;;;;;;10.00;10.00;;;;;;;;5050436;28;9760;-87
2023/04/29 02:13:21;;;;;;;;;12.50;12.50;;;;;;;;5058721;28;9780;-90
2023/04/29 02:15:52;;;;;;;;;11.75;9.00;;;;;;;;5064894;28;9859;-86
2023/04/29 02:18:19;;;;;;;;;12.00;12.00;;;;;;;;5054917;28;10493;-89
2023/04/29 02:20:53;;;;;;;;;15.00;13.75;;;;;;;;5051516;28;9831;-90
2023/04/29 02:23:20;;;;;;;;;15.00;13.75;;;;;;;;5050663;28;9810;-91
2023/04/29 02:25:48;;;;;;;;;12.00;9.50;;;;;;;;5051174;28;9793;-86
2023/04/29 02:28:16;;;;;;;;;14.75;13.75;;;;;;;;5049986;28;9750;-89
2023/04/29 02:30:43;;;;;;;;;13.50;13.50;;;;;;;;5049721;28;9702;-89
2023/04/29 02:33:12;;;;;;;;;14.50;12.50;;;;;;;;5050742;28;9875;-89
2023/04/29 02:35:42;;;;;;;;;16.00;13.50;;;;;;;;5050883;28;9791;-89
2023/04/29 02:38:10;;;;;;;;;10.50;10.50;;;;;;;;5050320;28;9898;-89
2023/04/29 02:40:42;;;;;;;;;16.25;16.25;;;;;;;;5048603;28;9940;-88
2023/04/29 02:43:09;;;;;;;;;14.25;14.25;;;;;;;;5052892;28;9723;-87
2023/04/29 02:45:37;;;;;;;;;15.00;15.00;;;;;;;;5058841;28;9896;-88
2023/04/29 02:48:04;;;;;;;;;16.50;16.25;;;;;;;;5053873;28;9813;-87
2023/04/29 02:50:33;;;;;;;;;28.00;28.00;;;;;;;;5051633;28;10054;-89
2023/04/29 02:53:01;;;;;;;;;20.25;18.75;;;;;;;;5050445;28;10154;-89
2023/04/29 02:55:31;;;;;;;;;18.50;18.00;;;;;;;;5049284;28;9876;-91
2023/04/29 02:57:59;;;;;;;;;15.50;15.25;;;;;;;;5049490;28;9910;-89
2023/04/29 03:00:26;;;;;;;;;8.00;7.75;;;;;;;;5050044;28;9532;-90
2023/04/29 03:02:53;;;;;;;;;17.75;16.25;;;;;;;;5049754;28;9726;-87
2023/04/29 03:05:20;;;;;;;;;15.50;15.25;;;;;;;;5049641;28;9864;-87
2023/04/29 03:07:49;;;;;;;;;18.00;17.50;;;;;;;;5050721;28;9788;-87
2023/04/29 03:10:17;;;;;;;;;18.25;18.25;;;;;;;;5059098;28;9709;-89
2023/04/29 03:12:45;;;;;;;;;21.50;17.50;;;;;;;;5058150;28;9787;-87
2023/04/29 03:15:12;;;;;;;;;19.75;18.50;;;;;;;;5052815;28;10504;-85
2023/04/29 03:17:40;;;;;;;;;17.25;17.25;;;;;;;;5051454;28;9984;-86
2023/04/29 03:20:09;;;;;;;;;18.50;15.75;;;;;;;;5086039;28;9622;-86
2023/04/29 03:22:36;;;;;;;;;18.75;18.75;;;;;;;;5051048;28;9556;-87
2023/04/29 03:25:06;;;;;;;;;18.75;17.00;;;;;;;;5050725;28;9714;-86
2023/04/29 03:27:33;;;;;;;;;16.50;14.75;;;;;;;;5050886;28;9565;-86
2023/04/29 03:30:01;;;;;;;;;22.75;20.25;;;;;;;;5051328;28;9558;-87
2023/04/29 03:32:28;;;;;;;;;23.50;20.00;;;;;;;;5030179;28;10378;-90
2023/04/29 03:34:56;;;;;;;;;17.75;17.75;;;;;;;;5046000;28;9634;-90
2023/04/29 03:37:23;;;;;;;;;19.75;19.75;;;;;;;;5046666;28;9631;-87
2023/04/29 03:39:51;;;;;;;;;19.50;18.50;;;;;;;;5038764;28;9640;-88
2023/04/29 03:42:20;;;;;;;;;18.75;18.75;;;;;;;;5029523;28;10572;-89
2023/04/29 03:44:47;;;;;;;;;22.50;19.25;;;;;;;;5032490;28;9679;-91
2023/04/29 03:47:14;;;;;;;;;18.50;18.50;;;;;;;;5034161;28;9502;-90
2023/04/29 03:49:42;;;;;;;;;20.25;20.25;;;;;;;;5034613;28;9614;-89
2023/04/29 03:52:11;;;;;;;;;23.50;23.50;;;;;;;;5029111;28;9519;-89
2023/04/29 03:54:38;;;;;;;;;22.75;22.75;;;;;;;;5032975;28;9569;-90
2023/04/29 03:57:05;;;;;;;;;24.25;21.25;;;;;;;;5041870;28;9550;-90
2023/04/29 03:59:34;;;;;;;;;20.50;18.50;;;;;;;;5048682;28;9623;-90
2023/04/29 04:02:02;;;;;;;;;29.25;23.75;;;;;;;;5033089;28;9528;-89
2023/04/29 04:04:32;;;;;;;;;27.50;21.50;;;;;;;;5032145;28;9858;-90
2023/04/29 04:07:02;;;;;;;;;22.00;21.00;;;;;;;;5031130;28;9671;-89
2023/04/29 04:09:30;;;;;;;;;25.00;19.50;;;;;;;;5031343;28;9751;-86
2023/04/29 04:11:57;;;;;;;;;23.75;22.25;;;;;;;;5031821;28;9684;-89
2023/04/29 04:14:25;;;;;;;;;23.00;21.25;;;;;;;;5033148;28;9711;-90
2023/04/29 04:16:54;;;;;;;;;24.50;22.00;;;;;;;;5039737;28;9893;-89
2023/04/29 04:19:21;;;;;;;;;23.50;20.50;;;;;;;;5036595;28;9972;-88
2023/04/29 04:21:48;;;;;;;;;24.25;23.00;;;;;;;;5035050;28;9820;-87
2023/04/29 04:24:16;;;;;;;;;29.00;25.50;;;;;;;;5032836;28;9921;-89
2023/04/29 04:26:52;;;;;;;;;30.00;25.25;;;;;;;;5033961;28;9828;-89
2023/04/29 04:29:21;;;;;;;;;28.25;28.25;;;;;;;;5038723;28;9894;-88
2023/04/29 04:31:48;;;;;;;;;26.25;23.50;;;;;;;;5067734;28;9999;-90
2023/04/29 04:34:17;;;;;;;;;29.00;26.50;;;;;;;;5060541;28;9869;-90
2023/04/29 04:36:44;;;;;;;;;26.00;23.75;;;;;;;;5051923;28;9805;-88
2023/04/29 04:39:12;;;;;;;;;26.00;24.75;;;;;;;;5050837;28;9984;-90
2023/04/29 04:41:39;;;;;;;;;22.50;22.50;;;;;;;;5051561;28;9888;-87
2023/04/29 04:44:06;;;;;;;;;26.00;23.75;;;;;;;;5051230;28;10019;-88
2023/04/29 04:46:34;;;;;;;;;31.50;27.00;;;;;;;;5054771;28;9701;-89
2023/04/29 04:49:01;;;;;;;;;25.75;22.50;;;;;;;;5059082;28;9804;-86
2023/04/29 04:51:30;;;;;;;;;28.25;27.25;;;;;;;;5057214;28;9724;-85
2023/04/29 04:53:57;;;;;;;;;21.00;21.00;;;;;;;;5053405;28;9928;-86
2023/04/29 04:56:25;;;;;;;;;24.00;24.00;;;;;;;;5063267;28;9446;-86
2023/04/29 04:58:55;;;;;;;;;34.75;28.50;;;;;;;;5052743;28;9635;-85
2023/04/29 05:01:26;;;;;;;;;21.25;21.25;;;;;;;;5050954;28;9665;-86
2023/04/29 05:03:59;;;;;;;;;35.00;31.25;;;;;;;;5049192;28;9484;-86
2023/04/29 05:06:26;;;;;;;;;30.25;27.25;;;;;;;;5050981;28;9717;-85
2023/04/29 05:08:55;;;;;;;;;21.00;18.67;;;;;;;;5052868;28;9611;-85
2023/04/29 05:11:23;;;;;;;;;27.75;25.25;;;;;;;;5052193;28;9516;-85
2023/04/29 05:13:50;;;;;;;;;30.75;28.00;;;;;;;;5035150;28;9409;-86
2023/04/29 05:16:18;;;;;;;;;34.00;31.25;;;;;;;;5051466;28;9563;-85
2023/04/29 05:18:45;;;;;;;;;30.00;26.00;;;;;;;;5069002;28;9593;-84
2023/04/29 05:21:12;;;;;;;;;29.00;28.00;;;;;;;;5057243;28;9559;-88
2023/04/29 05:23:39;;;;;;;;;25.00;23.00;;;;;;;;5062200;28;9416;-88
2023/04/29 05:26:20;;;;;;;;;25.33;24.67;;;;;;;;5057289;28;9493;-87
2023/04/29 05:28:47;;;;;;;;;30.33;28.33;;;;;;;;5064913;28;9323;-86
2023/04/29 05:31:14;;;;;;;;;35.00;31.75;;;;;;;;5068055;28;9499;-93
2023/04/29 05:33:44;;;;;;;;;33.25;27.75;;;;;;;;5059282;28;9550;-88
2023/04/29 05:36:11;;;;;;;;;28.25;25.50;;;;;;;;5050960;28;9634;-87
2023/04/29 05:38:39;;;;;;;;;30.25;27.25;;;;;;;;5051015;28;9470;-86
2023/04/29 05:41:08;;;;;;;;;29.50;28.00;;;;;;;;5064216;28;9467;-87
2023/04/29 05:43:41;;;;;;;;;33.25;28.00;;;;;;;;5068264;28;9394;-87
2023/04/29 05:46:08;;;;;;;;;30.25;27.25;;;;;;;;5041290;28;9415;-88
2023/04/29 05:48:36;;;;;;;;;21.33;20.33;;;;;;;;5057214;28;9505;-85
2023/04/29 05:51:03;;;;;;;;;25.67;22.00;;;;;;;;5061024;28;9483;-85
2023/04/29 05:53:34;;;;;;;;;31.33;28.67;;;;;;;;5071381;28;10143;-85
2023/04/29 05:56:03;;;;;;;;;29.00;26.25;;;;;;;;5057336;28;9465;-87
2023/04/29 05:58:31;;;;;;;;;32.00;29.00;;;;;;;;5054163;28;9688;-87
2023/04/29 06:01:02;;;;;;;;;32.00;29.75;;;;;;;;5053355;28;9461;-86
2023/04/29 06:03:41;;;;;;;;;30.00;29.00;;;;;;;;5053127;28;9547;-87
2023/04/29 06:06:11;;;;;;;;;33.75;32.50;;;;;;;;5053109;28;9474;-86
2023/04/29 06:08:38;;;;;;;;;38.50;31.25;;;;;;;;5049894;28;9464;-78
2023/04/29 06:11:06;;;;;;;;;34.25;32.00;;;;;;;;5052423;28;9552;-80
2023/04/29 06:13:33;;;;;;;;;27.50;23.75;;;;;;;;5066872;28;9691;-81
2023/04/29 06:16:02;;;;;;;;;37.00;31.50;;;;;;;;5049626;28;9396;-79
2023/04/29 06:18:29;;;;;;;;;40.50;35.00;;;;;;;;5051879;28;9896;-76
2023/04/29 06:20:56;;;;;;;;;43.25;35.25;;;;;;;;5052784;28;9842;-77
2023/04/29 06:23:24;;;;;;;;;34.25;30.00;;;;;;;;5051241;28;9893;-80
2023/04/29 06:25:51;;;;;;;;;35.25;32.00;;;;;;;;5051245;28;9598;-85
2023/04/29 06:28:19;;;;;;;;;47.75;37.00;;;;;;;;5050381;28;9774;-79
2023/04/29 06:30:46;;;;;;;;;34.75;31.75;;;;;;;;5050711;28;9678;-78
2023/04/29 06:33:14;;;;;;;;;31.50;28.75;;;;;;;;5049422;28;9730;-80
2023/04/29 06:35:42;;;;;;;;;38.25;34.00;;;;;;;;5050143;28;9558;-80
2023/04/29 06:38:12;;;;;;;;;33.75;30.00;;;;;;;;5049821;28;9586;-80
2023/04/29 06:40:39;;;;;;;;;39.25;35.00;;;;;;;;5052073;28;9465;-77
2023/04/29 06:43:06;;;;;;;;;40.00;36.00;;;;;;;;5050524;28;9479;-77
2023/04/29 06:45:34;;;;;;;;;46.00;37.00;;;;;;;;5051917;28;9813;-78
2023/04/29 06:48:01;;;;;;;;;39.50;34.75;;;;;;;;5050832;28;9810;-77
2023/04/29 06:50:29;;;;;;;;;39.50;35.00;;;;;;;;5056279;28;9572;-78
2023/04/29 06:52:57;;;;;;;;;39.25;33.50;;;;;;;;5049454;28;9916;-84
2023/04/29 06:55:25;;;;;;;;;42.50;35.00;;;;;;;;5051446;28;9821;-77
2023/04/29 06:57:52;;;;;;;;;44.00;36.50;;;;;;;;5048546;28;9559;-77
2023/04/29 07:00:21;;;;;;;;;34.00;32.50;;;;;;;;5048280;28;9707;-77
2023/04/29 07:02:49;;;;;;;;;42.50;34.50;;;;;;;;5050026;28;10547;-78
2023/04/29 07:05:16;;;;;;;;;35.50;33.25;;;;;;;;5049998;28;10250;-79
2023/04/29 07:07:45;;;;;;;;;37.00;34.25;;;;;;;;5052915;28;10529;-79
2023/04/29 07:10:12;;;;;;;;;40.00;35.50;;;;;;;;5050940;28;9622;-78
2023/04/29 07:12:39;;;;;;;;;46.50;37.00;;;;;;;;5065796;28;9799;-79
2023/04/29 07:15:07;;;;;;;;;29.50;29.50;;;;;;;;5057436;28;10654;-78
2023/04/29 07:17:34;;;;;;;;;47.25;35.75;;;;;;;;5056945;28;9865;-78
2023/04/29 07:20:02;;;;;;;;;41.75;35.50;;;;;;;;5054745;28;9646;-79
2023/04/29 07:22:30;;;;;;;;;35.75;32.50;;;;;;;;5057628;28;9809;-77
2023/04/29 07:24:58;;;;;;;;;29.75;28.00;;;;;;;;5051429;28;9861;-76
2023/04/29 07:27:27;;;;;;;;;31.25;31.25;;;;;;;;5054255;28;9412;-78
2023/04/29 07:29:54;;;;;;;;;40.50;36.00;;;;;;;;5055179;28;9685;-78
2023/04/29 07:32:21;;;;;;;;;40.25;35.50;;;;;;;;5054910;28;9864;-78
2023/04/29 07:34:48;;;;;;;;;40.00;33.75;;;;;;;;5054334;28;9824;-77
2023/04/29 07:37:16;;;;;;;;;45.50;37.50;;;;;;;;5056513;28;9816;-83
2023/04/29 07:39:43;;;;;;;;;49.50;37.25;;;;;;;;5052243;28;10643;-78
2023/04/29 07:42:11;;;;;;;;;43.00;36.25;;;;;;;;5053625;28;9939;-77
2023/04/29 07:44:39;;;;;;;;;44.50;35.25;;;;;;;;5054814;28;9890;-79
2023/04/29 07:47:07;;;;;;;;;39.25;35.00;;;;;;;;5058021;28;9629;-79
2023/04/29 07:49:34;;;;;;;;;40.50;35.00;;;;;;;;5045466;28;9702;-79
2023/04/29 07:52:02;;;;;;;;;37.50;32.50;;;;;;;;5059861;28;9836;-79
2023/04/29 07:54:29;;;;;;;;;47.25;36.75;;;;;;;;5055063;28;9563;-78
2023/04/29 07:56:59;;;;;;;;;48.75;36.75;;;;;;;;5068014;28;10565;-77
2023/04/29 07:59:27;;;;;;;;;43.00;33.75;;;;;;;;5051065;28;9747;-80
2023/04/29 08:01:55;;;;;;;;;43.75;35.00;;;;;;;;5050550;28;9545;-80
2023/04/29 08:04:22;;;;;;;;;39.25;36.25;;;;;;;;5051081;28;9701;-79
2023/04/29 08:06:49;;;;;;;;;43.50;37.00;;;;;;;;5052107;28;9566;-77
2023/04/29 08:09:17;;;;;;;;;49.00;39.00;;;;;;;;5051488;28;9716;-80
2023/04/29 08:11:44;;;;;;;;;33.25;31.25;;;;;;;;5050991;28;10084;-79
2023/04/29 08:14:11;;;;;;;;;38.25;35.00;;;;;;;;5050783;28;9637;-76
2023/04/29 08:16:40;;;;;;;;;39.75;34.00;;;;;;;;5051034;28;9778;-76
2023/04/29 08:19:16;;;;;;;;;39.50;35.25;;;;;;;;5050661;28;9641;-75
2023/04/29 08:21:43;;;;;;;;;36.75;32.25;;;;;;;;5052677;28;9476;-77
2023/04/29 08:24:10;;;;;;;;;38.00;33.25;;;;;;;;5052840;28;9761;-78
2023/04/29 08:26:39;;;;;;;;;35.75;33.25;;;;;;;;5052474;28;9505;-82
2023/04/29 08:29:06;;;;;;;;;29.00;28.00;;;;;;;;5052953;28;9474;-77
2023/04/29 08:31:34;;;;;;;;;42.25;35.25;;;;;;;;5051482;28;9353;-77
2023/04/29 08:34:02;;;;;;;;;30.25;30.25;;;;;;;;5052470;28;9620;-82
2023/04/29 08:36:29;;;;;;;;;31.00;29.75;;;;;;;;5051306;28;9633;-80
2023/04/29 08:38:57;;;;;;;;;29.75;26.75;;;;;;;;5050654;28;9742;-78
2023/04/29 08:41:24;;;;;;;;;38.25;33.75;;;;;;;;5051383;28;9639;-77
2023/04/29 08:43:51;;;;;;;;;42.75;34.00;;;;;;;;5051627;28;9711;-78
2023/04/29 08:46:19;;;;;;;;;36.00;32.25;;;;;;;;5050670;28;10924;-78
2023/04/29 08:48:47;;;;;;;;;28.00;25.00;;;;;;;;5052004;28;9924;-80
2023/04/29 08:51:15;;;;;;;;;31.75;30.00;;;;;;;;5052900;28;9892;-84
2023/04/29 08:53:43;;;;;;;;;38.25;33.50;;;;;;;;5065894;28;9900;-82
2023/04/29 08:56:16;;;;;;;;;38.25;30.75;;;;;;;;5064998;28;9703;-81
2023/04/29 08:58:44;;;;;;;;;23.50;22.75;;;;;;;;5060899;28;9892;-81
2023/04/29 09:01:11;;;;;;;;;32.00;28.50;;;;;;;;5055248;28;9768;-81
2023/04/29 09:03:44;;;;;;;;;33.00;29.25;;;;;;;;5058921;28;9777;-77
2023/04/29 09:06:12;;;;;;;;;30.50;29.00;;;;;;;;5056711;28;9851;-82
2023/04/29 09:08:41;;;;;;;;;28.00;26.75;;;;;;;;5051153;28;9623;-75
2023/04/29 09:11:10;;;;;;;;;34.00;30.25;;;;;;;;5049588;28;9525;-78
2023/04/29 09:13:38;;;;;;;;;27.50;26.75;;;;;;;;5051131;28;9475;-77
2023/04/29 09:16:05;;;;;;;;;25.67;25.33;;;;;;;;5051256;28;9570;-76
2023/04/29 09:18:43;;;;;;;;;36.00;32.50;;;;;;;;5062566;28;9331;-78
2023/04/29 09:21:18;;;;;;;;;25.33;23.67;;;;;;;;5050975;28;9477;-76
2023/04/29 09:23:47;;;;;;;;;20.00;20.00;;;;;;;;5051646;28;9412;-77
2023/04/29 09:26:15;;;;;;;;;28.50;28.25;;;;;;;;5050284;28;9420;-76
2023/04/29 09:28:44;;;;;;;;;24.00;21.33;;;;;;;;5049872;28;10176;-75
2023/04/29 09:31:12;;;;;;;;;33.00;28.00;;;;;;;;5049230;28;9291;-76
2023/04/29 09:33:53;;;;;;;;;27.00;25.00;;;;;;;;5049817;28;9320;-77
2023/04/29 09:36:39;;;;;;;;;25.33;25.33;;;;;;;;5036818;28;9398;-77
2023/04/29 09:39:11;;;;;;;;;30.67;28.33;;;;;;;;5048586;28;9526;-76
2023/04/29 09:41:43;;;;;;;;;32.33;27.33;;;;;;;;5048683;28;9355;-76
2023/04/29 09:44:11;;;;;;;;;25.67;23.67;;;;;;;;5050643;28;9374;-78
2023/04/29 09:46:38;;;;;;;;;27.67;24.67;;;;;;;;5049159;28;9331;-76
2023/04/29 09:49:22;;;;;;;;;27.67;26.33;;;;;;;;5048272;28;9262;-78
2023/04/29 09:51:53;;;;;;;;;28.67;26.67;;;;;;;;5049274;28;9873;-76
2023/04/29 09:54:23;;;;;;;;;27.67;27.67;;;;;;;;5049879;28;9345;-76
2023/04/29 09:56:51;;;;;;;;;28.33;26.67;;;;;;;;5048521;28;9238;-76
2023/04/29 09:59:18;;;;;;;;;24.67;23.00;;;;;;;;5048450;28;9344;-76
2023/04/29 10:01:48;;;;;;;;;26.33;24.67;;;;;;;;5047641;28;9207;-76
2023/04/29 10:04:17;;;;;;;;;28.33;26.00;;;;;;;;5048885;28;9279;-76
2023/04/29 10:06:46;;;;;;;;;26.33;24.67;;;;;;;;5049899;28;9639;-76
2023/04/29 10:09:16;;;;;;;;;27.33;27.00;;;;;;;;5048514;28;9348;-77
2023/04/29 10:11:45;;;;;;;;;33.00;28.33;;;;;;;;5050626;28;9252;-76
2023/04/29 10:14:14;;;;;;;;;35.33;30.33;;;;;;;;5049373;28;10078;-76
2023/04/29 10:16:46;;;;;;;;;28.00;26.67;;;;;;;;5050507;28;9583;-78
2023/04/29 10:19:19;;;;;;;;;26.00;23.33;;;;;;;;5049520;28;9342;-79
2023/04/29 10:21:49;;;;;;;;;23.33;23.33;;;;;;;;5050096;28;9417;-79
2023/04/29 10:24:19;;;;;;;;;25.00;21.67;;;;;;;;5054906;28;9417;-77
2023/04/29 10:26:48;;;;;;;;;22.75;19.50;;;;;;;;5061680;28;9387;-79
2023/04/29 10:29:16;;;;;;;;;27.50;23.00;;;;;;;;5049665;28;10352;-77
2023/04/29 10:31:44;;;;;;;;;24.00;23.00;;;;;;;;5049987;28;10159;-78
2023/04/29 10:34:12;;;;;;;;;24.33;23.00;;;;;;;;5051017;28;9460;-80
2023/04/29 10:36:40;;;;;;;;;25.33;23.00;;;;;;;;5048912;28;9459;-79
2023/04/29 10:39:12;;;;;;;;;27.50;22.00;;;;;;;;5050382;28;10268;-78
2023/04/29 10:41:47;;;;;;;;;25.00;25.00;;;;;;;;5067232;28;9589;-79
2023/04/29 10:44:14;;;;;;;;;25.00;25.00;;;;;;;;5052312;28;9539;-80
2023/04/29 10:46:41;;;;;;;;;28.00;25.33;;;;;;;;5064866;28;9481;-80
2023/04/29 10:49:11;;;;;;;;;28.50;27.50;;;;;;;;5059508;28;9435;-79
2023/04/29 10:51:42;;;;;;;;;26.67;25.00;;;;;;;;5054459;28;9509;-79
2023/04/29 10:54:10;;;;;;;;;22.75;21.00;;;;;;;;5061698;28;9389;-74
2023/04/29 10:56:42;;;;;;;;;30.25;25.75;;;;;;;;5063586;28;9467;-75
2023/04/29 10:59:15;;;;;;;;;25.00;23.25;;;;;;;;5056788;28;9603;-74
2023/04/29 11:01:47;;;;;;;;;22.33;21.67;;;;;;;;5060015;28;9335;-75
2023/04/29 11:04:15;;;;;;;;;27.33;24.33;;;;;;;;5057875;28;9392;-76
2023/04/29 11:06:47;;;;;;;;;22.33;22.33;;;;;;;;5051250;28;9423;-74
2023/04/29 11:09:19;;;;;;;;;23.00;23.00;;;;;;;;5047629;28;10005;-75
2023/04/29 11:11:59;;;;;;;;;26.00;24.00;;;;;;;;5048044;28;9410;-81
2023/04/29 11:14:31;;;;;;;;;26.00;25.00;;;;;;;;5047529;28;9277;-79
2023/04/29 11:16:59;;;;;;;;;22.00;20.33;;;;;;;;5036064;28;9366;-76
2023/04/29 11:19:31;;;;;;;;;24.33;24.00;;;;;;;;5047180;28;9287;-75
2023/04/29 11:22:13;;;;;;;;;25.67;23.67;;;;;;;;5048142;28;9200;-76
2023/04/29 11:24:51;;;;;;;;;23.00;22.00;;;;;;;;5048957;28;9099;-75
2023/04/29 11:27:19;;;;;;;;;26.00;26.00;;;;;;;;5048615;28;8960;-72
2023/04/29 11:29:48;;;;;;;;;20.75;20.25;;;;;;;;5046679;28;9073;-78
2023/04/29 11:32:15;;;;;;;;;19.33;17.33;;;;;;;;5046894;28;9691;-77
2023/04/29 11:34:42;;;;;;;;;22.50;21.25;;;;;;;;5046863;28;9002;-80
2023/04/29 11:37:12;;;;;;;;;32.67;27.67;;;;;;;;5047304;28;8996;-80
2023/04/29 11:39:39;;;;;;;;;31.33;30.67;;;;;;;;5036492;28;9007;-78
2023/04/29 11:42:09;;;;;;;;;27.00;25.33;;;;;;;;5047184;28;9316;-79
2023/04/29 11:44:37;;;;;;;;;33.00;28.00;;;;;;;;5048059;28;8945;-82
2023/04/29 11:47:06;;;;;;;;;29.00;27.33;;;;;;;;5048492;28;9064;-79
2023/04/29 11:49:34;;;;;;;;;32.00;28.67;;;;;;;;5048222;28;9808;-76
2023/04/29 11:52:01;;;;;;;;;21.33;21.33;;;;;;;;5048853;28;9198;-78
2023/04/29 11:54:30;;;;;;;;;27.33;24.67;;;;;;;;5050101;28;9115;-81
2023/04/29 11:56:58;;;;;;;;;28.00;26.67;;;;;;;;5050743;28;9020;-78
2023/04/29 11:59:25;;;;;;;;;30.25;27.25;;;;;;;;5047563;28;8934;-79
2023/04/29 12:01:53;;;;;;;;;32.00;29.33;;;;;;;;5048055;28;8810;-80
2023/04/29 12:04:21;;;;;;;;;29.33;27.33;;;;;;;;5048244;28;8930;-81
2023/04/29 12:06:52;;;;;;;;;25.33;25.00;;;;;;;;5048969;28;9298;-78
2023/04/29 12:09:22;;;;;;;;;30.67;29.67;;;;;;;;5047311;28;9054;-80
2023/04/29 12:11:50;;;;;;;;;27.00;23.33;;;;;;;;5047584;28;9009;-83
2023/04/29 12:14:17;;;;;;;;;23.67;23.67;;;;;;;;5050205;28;9145;-82
2023/04/29 12:16:46;;;;;;;;;22.00;21.75;;;;;;;;5051249;28;8937;-81
2023/04/29 12:19:13;;;;;;;;;24.25;21.50;;;;;;;;5051708;28;8928;-81
2023/04/29 12:21:55;;;;;;;;;24.25;21.75;;;;;;;;5051295;28;8861;-79
2023/04/29 12:24:22;;;;;;;;;25.75;23.25;;;;;;;;5054521;28;8869;-83
2023/04/29 12:26:50;;;;;;;;;24.50;21.00;;;;;;;;5056183;28;8903;-83
2023/04/29 12:29:17;;;;;;;;;25.00;24.25;;;;;;;;5056806;28;8853;-82
2023/04/29 12:31:48;;;;;;;;;14.50;13.25;;;;;;;;5055197;28;8806;-84
2023/04/29 12:34:15;;;;;;;;;20.00;18.50;;;;;;;;5057507;28;8846;-84
2023/04/29 12:36:42;;;;;;;;;16.00;16.00;;;;;;;;5051068;28;8858;-77
2023/04/29 12:39:12;;;;;;;;;23.25;23.25;;;;;;;;5050750;28;8892;-78
2023/04/29 12:41:41;;;;;;;;;24.75;21.75;;;;;;;;5043105;28;8981;-77
2023/04/29 12:44:10;;;;;;;;;19.25;15.25;;;;;;;;5059944;28;8975;-77
2023/04/29 12:46:38;;;;;;;;;21.00;19.00;;;;;;;;5050430;28;8857;-79
2023/04/29 12:49:06;;;;;;;;;25.75;24.25;;;;;;;;5050088;28;8877;-77
2023/04/29 12:51:35;;;;;;;;;20.50;20.00;;;;;;;;5050131;28;8875;-79
2023/04/29 12:54:03;;;;;;;;;18.00;18.00;;;;;;;;5052784;28;9646;-76
2023/04/29 12:56:32;;;;;;;;;20.00;20.00;;;;;;;;5051125;28;9015;-77
2023/04/29 12:59:06;;;;;;;;;21.00;19.25;;;;;;;;5054158;28;8857;-77
2023/04/29 13:01:33;;;;;;;;;29.75;28.75;;;;;;;;5049494;28;8798;-77
2023/04/29 13:04:00;;;;;;;;;25.75;23.75;;;;;;;;5050042;28;8857;-79
2023/04/29 13:06:30;;;;;;;;;23.25;21.00;;;;;;;;5050267;28;8849;-76
2023/04/29 13:09:00;;;;;;;;;25.00;22.75;;;;;;;;5050270;28;8988;-83
2023/04/29 13:11:28;;;;;;;;;18.75;16.00;;;;;;;;5048929;28;8829;-77
2023/04/29 13:13:56;;;;;;;;;23.00;22.00;;;;;;;;5049958;28;8956;-79
2023/04/29 13:16:24;;;;;;;;;21.00;21.00;;;;;;;;5058689;28;8988;-78
2023/04/29 13:18:51;;;;;;;;;26.50;24.50;;;;;;;;5041521;28;8853;-77
2023/04/29 13:21:19;;;;;;;;;23.00;22.50;;;;;;;;5067520;28;8835;-78
2023/04/29 13:23:47;;;;;;;;;19.50;19.50;;;;;;;;5057917;28;8857;-76
2023/04/29 13:26:14;;;;;;;;;20.75;20.75;;;;;;;;5052705;28;8850;-80
2023/04/29 13:28:42;;;;;;;;;22.75;20.75;;;;;;;;5049358;28;9612;-76
2023/04/29 13:31:11;;;;;;;;;24.00;21.00;;;;;;;;5051135;28;8785;-77
2023/04/29 13:33:38;;;;;;;;;23.75;23.75;;;;;;;;5059063;28;8952;-80
2023/04/29 13:36:05;;;;;;;;;18.25;17.75;;;;;;;;5049299;28;8846;-78
2023/04/29 13:38:32;;;;;;;;;21.50;18.75;;;;;;;;5059668;28;8981;-79
